Time;durP1;ratioP1;P1;durP2;ratioP2;P2;SDS_P1;SDS_P2;PMS_P1;PMS_P2;Temp;Humidity;BMP_temperature;BMP_pressure;BME280_temperature;BME280_humidity;BME280_pressure;Samples;Min_cycle;Max_cycle;Signal;HPM_P1;HPM_P2
2023/01/29 00:00:00;;;;;;;25.55;11.25;;;5.00;95.90;;;;;;4992476;28;20044;-80
2023/01/29 00:02:26;;;;;;;22.65;11.40;;;5.00;96.00;;;;;;4990498;28;20057;-79
2023/01/29 00:04:52;;;;;;;26.40;11.48;;;5.00;95.90;;;;;;4992869;28;20057;-80
2023/01/29 00:07:18;;;;;;;24.08;11.57;;;5.00;96.00;;;;;;4992889;28;20093;-79
2023/01/29 00:09:43;;;;;;;23.45;11.63;;;5.00;96.00;;;;;;4991508;28;20030;-80
2023/01/29 00:12:09;;;;;;;22.75;11.07;;;5.00;96.00;;;;;;4991967;28;20033;-80
2023/01/29 00:14:35;;;;;;;23.48;11.25;;;5.00;95.90;;;;;;4991613;28;20342;-79
2023/01/29 00:17:01;;;;;;;27.05;11.23;;;5.00;96.00;;;;;;4993027;28;20045;-80
2023/01/29 00:19:27;;;;;;;22.98;11.30;;;5.10;96.00;;;;;;4992914;28;20105;-79
2023/01/29 00:21:55;;;;;;;22.88;10.85;;;5.10;96.10;;;;;;4992429;28;20026;-79
2023/01/29 00:24:23;;;;;;;18.20;10.10;;;5.10;96.00;;;;;;4991908;28;20034;-80
2023/01/29 00:26:49;;;;;;;22.30;11.27;;;5.10;96.20;;;;;;4991069;28;20049;-79
2023/01/29 00:29:16;;;;;;;20.92;11.02;;;5.10;96.30;;;;;;4991441;28;20031;-80
2023/01/29 00:31:45;;;;;;;23.58;11.68;;;5.00;96.20;;;;;;4991175;28;20137;-79
2023/01/29 00:34:10;;;;;;;23.35;10.93;;;5.00;96.20;;;;;;4992294;28;20467;-79
2023/01/29 00:36:36;;;;;;;20.58;10.60;;;5.10;96.20;;;;;;4992421;28;20027;-78
2023/01/29 00:39:09;;;;;;;27.35;11.52;;;5.10;96.40;;;;;;4991643;28;20112;-80
2023/01/29 00:47:29;;;;;;;19.75;10.32;;;4.90;96.50;;;;;;4991815;28;20085;-80
2023/01/29 00:49:50;;;;;;;24.88;11.93;;;4.80;96.50;;;;;;4991768;28;20487;-80
2023/01/29 00:52:25;;;;;;;19.80;10.82;;;4.80;96.60;;;;;;4990768;28;20027;-81
2023/01/29 00:54:56;;;;;;;20.98;11.00;;;4.80;96.70;;;;;;4991358;28;20397;-79
2023/01/29 00:57:24;;;;;;;25.83;11.57;;;4.80;96.60;;;;;;4991068;28;20041;-80
2023/01/29 00:59:50;;;;;;;25.85;11.95;;;4.80;96.60;;;;;;4991717;28;20522;-80
2023/01/29 01:05:02;;;;;;;26.17;11.52;;;4.70;96.60;;;;;;4991907;28;20053;-79
2023/01/29 01:07:29;;;;;;;27.30;12.55;;;4.80;96.80;;;;;;4990658;28;20030;-79
2023/01/29 01:12:39;;;;;;;23.38;10.77;;;4.80;96.80;;;;;;4991766;28;20267;-78
2023/01/29 01:15:08;;;;;;;23.02;11.05;;;4.80;96.70;;;;;;4991810;28;20026;-78
2023/01/29 01:17:34;;;;;;;21.70;10.90;;;4.80;96.60;;;;;;4990306;28;20097;-80
2023/01/29 01:20:00;;;;;;;18.88;10.35;;;4.90;96.70;;;;;;4991481;28;20039;-78
2023/01/29 01:22:30;;;;;;;23.17;11.00;;;4.80;96.70;;;;;;4990268;28;20030;-79
2023/01/29 01:24:55;;;;;;;19.92;10.00;;;4.80;96.70;;;;;;4991553;28;20026;-79
2023/01/29 01:27:21;;;;;;;21.45;10.60;;;4.90;96.70;;;;;;4991951;28;20042;-78
2023/01/29 01:29:49;;;;;;;21.00;10.75;;;4.90;96.70;;;;;;4990927;28;20089;-78
2023/01/29 01:32:15;;;;;;;24.05;11.48;;;4.90;96.90;;;;;;4991020;28;20026;-80
2023/01/29 01:34:41;;;;;;;32.47;14.50;;;4.90;96.50;;;;;;4991014;28;20100;-80
2023/01/29 01:37:07;;;;;;;29.23;12.90;;;5.00;96.60;;;;;;4991934;28;20034;-77
2023/01/29 01:39:32;;;;;;;23.85;11.25;;;5.00;96.50;;;;;;4990722;28;20046;-79
2023/01/29 01:41:58;;;;;;;21.38;11.13;;;5.00;96.40;;;;;;4991270;28;20105;-79
2023/01/29 01:44:52;;;;;;;21.92;10.68;;;5.00;96.40;;;;;;4989986;28;20049;-79
2023/01/29 01:47:33;;;;;;;19.50;10.13;;;5.00;96.40;;;;;;4991226;28;20058;-79
2023/01/29 01:50:05;;;;;;;19.75;10.25;;;4.90;96.50;;;;;;4990597;28;20054;-80
2023/01/29 01:52:32;;;;;;;19.25;9.73;;;4.90;96.50;;;;;;4991310;28;20348;-79
2023/01/29 01:55:01;;;;;;;22.58;11.77;;;4.90;96.50;;;;;;4989959;28;20416;-78
2023/01/29 01:57:30;;;;;;;22.73;11.68;;;4.90;96.50;;;;;;4990580;28;20034;-79
2023/01/29 02:00:02;;;;;;;26.00;11.77;;;4.90;96.60;;;;;;4990299;28;20053;-79
2023/01/29 02:10:48;;;;;;;28.20;11.77;;;4.60;97.10;;;;;;4994607;28;20048;-78
2023/01/29 02:13:16;;;;;;;19.38;10.48;;;4.70;97.20;;;;;;4994725;28;20038;-80
2023/01/29 02:15:45;;;;;;;23.60;11.23;;;4.60;97.30;;;;;;4994654;28;20030;-79
2023/01/29 02:18:13;;;;;;;23.50;11.32;;;4.60;97.30;;;;;;4993897;28;20121;-78
2023/01/29 02:20:42;;;;;;;22.55;10.90;;;4.60;97.20;;;;;;4994725;28;20073;-80
2023/01/29 02:23:38;;;;;;;22.80;10.90;;;4.60;97.10;;;;;;4993609;28;20097;-78
2023/01/29 02:26:44;;;;;;;20.83;9.65;;;4.50;97.30;;;;;;4994426;28;20366;-78
2023/01/29 02:29:27;;;;;;;18.98;10.30;;;4.60;97.30;;;;;;4994735;28;20038;-77
2023/01/29 02:32:17;;;;;;;21.30;10.48;;;4.70;97.10;;;;;;4994547;28;20100;-78
2023/01/29 02:37:53;;;;;;;19.08;9.25;;;4.80;97.00;;;;;;4994487;28;20487;-78
2023/01/29 02:40:38;;;;;;;21.90;9.57;;;4.70;97.00;;;;;;4994217;28;20125;-78
2023/01/29 02:43:07;;;;;;;19.50;10.27;;;4.80;97.00;;;;;;4994041;28;20026;-78
2023/01/29 02:46:04;;;;;;;21.25;9.88;;;4.70;97.00;;;;;;4993375;28;20455;-80
2023/01/29 02:48:41;;;;;;;20.35;9.57;;;4.80;96.90;;;;;;4994198;28;20042;-78
2023/01/29 02:51:19;;;;;;;23.48;11.13;;;4.80;96.80;;;;;;4994235;28;20038;-79
2023/01/29 02:53:56;;;;;;;21.77;10.38;;;4.80;96.80;;;;;;4994324;28;20039;-79
2023/01/29 02:56:31;;;;;;;27.73;11.45;;;4.90;96.80;;;;;;4994173;28;20369;-78
2023/01/29 02:59:08;;;;;;;22.15;10.90;;;4.80;96.60;;;;;;4993167;28;20038;-80
2023/01/29 03:01:45;;;;;;;24.60;11.38;;;4.70;96.60;;;;;;4994465;28;20034;-79
2023/01/29 03:04:17;;;;;;;23.63;11.13;;;4.60;96.60;;;;;;4993102;28;20346;-78
2023/01/29 03:06:55;;;;;;;24.00;11.23;;;4.60;96.70;;;;;;4994023;28;20018;-79
2023/01/29 03:09:40;;;;;;;24.05;11.27;;;4.70;96.70;;;;;;4994039;28;20050;-79
2023/01/29 03:12:27;;;;;;;20.98;11.13;;;4.70;96.60;;;;;;4994047;28;20043;-79
2023/01/29 03:15:12;;;;;;;25.05;11.38;;;4.70;96.60;;;;;;4994650;28;20484;-79
2023/01/29 03:17:50;;;;;;;23.88;11.68;;;4.70;96.70;;;;;;4995760;28;20037;-79
2023/01/29 03:20:24;;;;;;;22.85;12.05;;;4.60;96.50;;;;;;4996225;28;20042;-79
2023/01/29 03:23:01;;;;;;;28.95;12.50;;;4.60;96.40;;;;;;4995103;28;20034;-78
2023/01/29 03:34:00;;;;;;;23.90;12.20;;;4.80;96.20;;;;;;4996786;28;20452;-79
2023/01/29 03:36:54;;;;;;;25.58;11.88;;;4.60;96.20;;;;;;4997158;28;20044;-79
2023/01/29 03:39:21;;;;;;;29.35;12.63;;;4.60;96.10;;;;;;4995599;28;20042;-80
2023/01/29 03:42:02;;;;;;;25.20;11.20;;;4.50;95.90;;;;;;4995397;28;20031;-79
2023/01/29 03:44:49;;;;;;;23.83;11.95;;;4.70;96.00;;;;;;4993617;28;20113;-79
2023/01/29 03:47:57;;;;;;;30.73;12.30;;;4.50;95.80;;;;;;4993262;28;20108;-79
2023/01/29 03:50:51;;;;;;;22.35;11.05;;;4.50;96.00;;;;;;4993127;28;20041;-79
2023/01/29 03:53:33;;;;;;;29.55;11.85;;;4.50;96.00;;;;;;4993142;28;20096;-80
2023/01/29 03:56:32;;;;;;;27.33;12.38;;;4.40;95.90;;;;;;4994751;28;20030;-79
2023/01/29 03:59:20;;;;;;;25.77;11.73;;;4.50;96.00;;;;;;4995678;28;20030;-79
2023/01/29 04:01:54;;;;;;;;;;;4.60;96.00;;;;;;4995422;28;20030;-80
2023/01/29 04:04:27;;;;;;;23.45;11.68;;;4.60;95.80;;;;;;4994501;28;19960;-79
2023/01/29 04:06:56;;;;;;;26.30;12.48;;;4.60;96.10;;;;;;4995385;28;20038;-81
2023/01/29 04:09:31;;;;;;;23.52;11.88;;;4.60;95.70;;;;;;4995476;28;20118;-79
2023/01/29 04:12:04;;;;;;;21.92;11.70;;;4.70;95.80;;;;;;4994628;28;20412;-80
2023/01/29 04:14:31;;;;;;;24.42;12.52;;;4.60;95.70;;;;;;4993305;28;20031;-79
2023/01/29 04:17:02;;;;;;;26.27;12.60;;;4.30;95.80;;;;;;4993192;28;20034;-79
2023/01/29 04:19:27;;;;;;;28.92;12.43;;;4.50;96.00;;;;;;4992925;28;20460;-80
2023/01/29 04:22:02;;;;;;;30.10;12.38;;;4.40;95.90;;;;;;4994054;28;20203;-80
2023/01/29 04:24:29;;;;;;;27.42;13.40;;;4.60;96.00;;;;;;4994078;28;20027;-78
2023/01/29 04:26:59;;;;;;;28.63;13.07;;;4.50;95.70;;;;;;4992856;28;20372;-77
2023/01/29 04:29:43;;;;;;;25.25;12.73;;;4.50;95.70;;;;;;4994560;28;20085;-79
2023/01/29 04:32:24;;;;;;;23.42;12.52;;;4.50;95.70;;;;;;4993888;28;20464;-78
2023/01/29 04:35:08;;;;;;;25.25;12.48;;;4.50;95.70;;;;;;4993166;28;20034;-78
2023/01/29 04:37:58;;;;;;;29.80;13.45;;;4.40;95.60;;;;;;4992470;28;20027;-78
2023/01/29 04:40:32;;;;;;;28.48;12.40;;;4.40;95.80;;;;;;4991910;28;20027;-79
2023/01/29 04:43:19;;;;;;;25.50;12.40;;;4.50;95.80;;;;;;4991091;28;20110;-80
2023/01/29 04:46:16;;;;;;;25.27;11.93;;;4.60;95.60;;;;;;4992386;28;20031;-78
2023/01/29 04:49:00;;;;;;;25.53;11.80;;;4.60;95.50;;;;;;4995591;28;20018;-79
2023/01/29 04:51:44;;;;;;;24.35;11.73;;;4.70;95.50;;;;;;4995888;28;20023;-78
2023/01/29 04:54:22;;;;;;;26.88;12.23;;;4.70;95.50;;;;;;5007912;28;20369;-79
2023/01/29 04:57:09;;;;;;;25.52;12.15;;;4.80;95.40;;;;;;5004878;28;20104;-79
2023/01/29 04:59:46;;;;;;;22.58;11.57;;;4.70;95.60;;;;;;4994600;28;20038;-79
2023/01/29 05:02:13;;;;;;;24.52;11.95;;;4.50;95.50;;;;;;4991980;28;20038;-80
2023/01/29 05:04:42;;;;;;;24.52;12.27;;;4.60;95.50;;;;;;4990507;28;20092;-80
2023/01/29 05:07:12;;;;;;;21.83;10.90;;;4.60;95.50;;;;;;4991490;28;20047;-80
2023/01/29 05:09:41;;;;;;;22.48;11.25;;;4.60;95.50;;;;;;4990194;28;20030;-78
2023/01/29 05:12:09;;;;;;;26.42;11.38;;;4.50;95.60;;;;;;4991892;28;20034;-79
2023/01/29 05:14:38;;;;;;;24.05;11.75;;;4.60;95.70;;;;;;4991789;28;20030;-79
2023/01/29 05:17:10;;;;;;;27.77;10.85;;;4.60;95.60;;;;;;4991364;28;20027;-78
2023/01/29 05:19:36;;;;;;;25.27;11.50;;;4.60;95.50;;;;;;4991584;28;20027;-78
2023/01/29 05:22:04;;;;;;;23.55;10.80;;;4.70;95.50;;;;;;4991389;28;20036;-78
2023/01/29 05:24:29;;;;;;;;;;;4.80;95.40;;;;;;4992266;28;20026;-79
2023/01/29 05:29:44;;;;;;;24.75;10.90;;;4.80;95.40;;;;;;4991568;28;20061;-78
2023/01/29 05:32:10;;;;;;;24.25;10.93;;;4.80;95.60;;;;;;4991321;28;20066;-78
2023/01/29 05:34:35;;;;;;;23.13;12.18;;;4.70;95.50;;;;;;4991550;28;20084;-79
2023/01/29 05:37:01;;;;;;;25.13;10.93;;;4.70;95.40;;;;;;4990951;28;20030;-79
2023/01/29 05:39:27;;;;;;;22.38;11.15;;;4.70;95.50;;;;;;4993694;28;20026;-78
2023/01/29 05:41:53;;;;;;;23.25;11.00;;;4.70;95.40;;;;;;4995211;28;20169;-78
2023/01/29 05:44:19;;;;;;;25.13;10.95;;;4.80;95.40;;;;;;4995021;28;20113;-80
2023/01/29 05:46:45;;;;;;;27.48;11.48;;;4.70;95.40;;;;;;4995031;28;20512;-79
2023/01/29 05:49:11;;;;;;;25.27;11.35;;;4.80;95.50;;;;;;4995021;28;20529;-79
2023/01/29 05:51:37;;;;;;;21.02;10.60;;;4.70;95.40;;;;;;4995229;28;20026;-77
2023/01/29 05:54:03;;;;;;;22.33;11.13;;;4.80;95.40;;;;;;4995246;28;20468;-80
2023/01/29 05:56:29;;;;;;;23.92;11.77;;;4.90;95.30;;;;;;4994998;28;20528;-80
2023/01/29 05:58:55;;;;;;;26.20;11.65;;;4.90;95.40;;;;;;4993737;28;20129;-80
2023/01/29 06:01:24;;;;;;;20.88;11.13;;;4.90;95.30;;;;;;4993890;28;20526;-79
2023/01/29 06:03:50;;;;;;;22.23;10.70;;;4.90;95.30;;;;;;4994920;28;20046;-78
2023/01/29 06:06:16;;;;;;;28.70;11.30;;;4.90;95.30;;;;;;4995283;28;20102;-78
2023/01/29 06:08:42;;;;;;;26.15;12.07;;;4.90;95.20;;;;;;4994564;28;20037;-76
2023/01/29 06:11:10;;;;;;;26.13;11.65;;;4.90;95.10;;;;;;4994660;28;20027;-78
2023/01/29 06:13:36;;;;;;;29.65;12.50;;;4.90;95.20;;;;;;4993311;28;20157;-79
2023/01/29 06:16:06;;;;;;;32.15;12.93;;;4.60;95.30;;;;;;4994523;28;20038;-80
2023/01/29 06:18:32;;;;;;;23.10;11.18;;;4.70;95.40;;;;;;4994897;28;20456;-79
2023/01/29 06:21:05;;;;;;;28.10;12.55;;;4.70;95.30;;;;;;4994375;28;20073;-78
2023/01/29 06:23:31;;;;;;;29.83;13.25;;;4.70;95.20;;;;;;4994195;28;20035;-80
2023/01/29 06:26:06;;;;;;;25.13;12.30;;;4.90;95.30;;;;;;4994507;28;20113;-80
2023/01/29 06:28:32;;;;;;;31.02;12.52;;;4.80;95.20;;;;;;4993884;28;20121;-80
2023/01/29 06:30:59;;;;;;;26.80;12.48;;;4.90;95.70;;;;;;4994064;28;20100;-78
2023/01/29 06:33:25;;;;;;;27.23;13.20;;;4.90;95.40;;;;;;4994782;28;20022;-79
2023/01/29 06:35:56;;;;;;;26.42;12.40;;;4.70;95.40;;;;;;4994000;28;20030;-78
2023/01/29 06:38:22;;;;;;;37.90;13.38;;;4.60;95.70;;;;;;4994007;28;20034;-77
2023/01/29 06:40:48;;;;;;;26.77;12.63;;;4.60;95.80;;;;;;4993962;28;20121;-78
2023/01/29 06:43:14;;;;;;;26.73;13.48;;;4.80;95.90;;;;;;4993887;28;20113;-78
2023/01/29 06:45:48;;;;;;;24.83;12.82;;;4.80;95.70;;;;;;4993684;28;20029;-77
2023/01/29 06:48:14;;;;;;;30.85;13.50;;;4.70;95.90;;;;;;4993394;28;20113;-77
2023/01/29 06:50:39;;;;;;;28.10;12.80;;;4.80;95.80;;;;;;4993860;28;20164;-80
2023/01/29 06:53:06;;;;;;;26.52;12.52;;;4.80;95.70;;;;;;4996140;28;20031;-79
2023/01/29 06:55:32;;;;;;;33.13;14.40;;;4.90;95.70;;;;;;5014071;28;20105;-80
2023/01/29 06:57:57;;;;;;;28.95;13.55;;;5.00;95.80;;;;;;5013731;28;20053;-79
2023/01/29 07:00:23;;;;;;;28.25;13.20;;;4.90;95.70;;;;;;5013939;28;20022;-79
2023/01/29 07:02:49;;;;;;;30.45;14.15;;;5.00;95.80;;;;;;5013675;28;20025;-79
2023/01/29 07:05:14;;;;;;;34.25;14.70;;;5.00;95.70;;;;;;5013474;28;20045;-78
2023/01/29 07:07:40;;;;;;;33.58;14.93;;;5.00;95.70;;;;;;4997384;28;20397;-82
2023/01/29 07:10:06;;;;;;;33.53;15.55;;;4.70;95.70;;;;;;4993561;28;20096;-80
2023/01/29 07:12:32;;;;;;;33.05;15.50;;;4.80;95.80;;;;;;4993945;28;20470;-78
2023/01/29 07:14:57;;;;;;;39.35;17.02;;;4.80;95.70;;;;;;4993648;28;20058;-80
2023/01/29 07:17:23;;;;;;;35.63;15.93;;;4.70;95.70;;;;;;4993591;28;20037;-79
2023/01/29 07:19:49;;;;;;;32.67;14.82;;;4.80;95.90;;;;;;4992457;28;20038;-77
2023/01/29 07:22:15;;;;;;;35.15;15.75;;;4.90;95.80;;;;;;4993530;28;20114;-76
2023/01/29 07:24:41;;;;;;;42.08;17.17;;;4.80;95.80;;;;;;4991889;28;20457;-77
2023/01/29 07:27:06;;;;;;;33.30;15.80;;;4.90;95.80;;;;;;4993345;28;20062;-77
2023/01/29 07:29:32;;;;;;;35.55;17.00;;;4.80;95.80;;;;;;4993123;28;20037;-76
2023/01/29 07:31:58;;;;;;;40.55;17.40;;;4.90;95.90;;;;;;4993244;28;20364;-76
2023/01/29 07:34:23;;;;;;;39.38;17.30;;;4.80;96.00;;;;;;4991612;28;20124;-77
2023/01/29 07:36:52;;;;;;;45.05;18.35;;;4.80;96.20;;;;;;4991883;28;20030;-76
2023/01/29 07:39:18;;;;;;;41.13;18.73;;;4.80;96.50;;;;;;4993204;28;20373;-78
2023/01/29 07:41:44;;;;;;;39.33;17.55;;;4.80;96.70;;;;;;4992696;28;20037;-78
2023/01/29 07:44:09;;;;;;;39.95;19.25;;;4.60;96.90;;;;;;4992831;28;20053;-78
2023/01/29 07:46:35;;;;;;;42.60;18.73;;;4.60;97.10;;;;;;4991726;28;20139;-77
2023/01/29 07:49:01;;;;;;;42.92;18.65;;;4.40;97.40;;;;;;4991631;28;20035;-78
2023/01/29 07:51:26;;;;;;;42.78;18.55;;;4.40;97.60;;;;;;4992859;28;20118;-77
2023/01/29 07:53:52;;;;;;;44.38;19.20;;;4.50;97.60;;;;;;4992407;28;20038;-77
2023/01/29 07:56:18;;;;;;;39.85;18.33;;;4.70;97.50;;;;;;4992306;28;20093;-76
2023/01/29 07:58:43;;;;;;;41.60;19.70;;;4.70;97.60;;;;;;4992245;28;20031;-76
2023/01/29 08:01:09;;;;;;;42.88;18.48;;;4.70;97.70;;;;;;4990656;28;20485;-77
2023/01/29 08:03:35;;;;;;;44.20;19.88;;;4.80;97.70;;;;;;4992666;28;20053;-77
2023/01/29 08:06:03;;;;;;;45.45;19.92;;;4.70;97.90;;;;;;4992289;28;20133;-77
2023/01/29 08:08:28;;;;;;;45.35;19.58;;;4.50;98.20;;;;;;4992099;28;20106;-77
2023/01/29 08:10:54;;;;;;;46.08;20.52;;;4.60;98.50;;;;;;4992373;28;20536;-77
2023/01/29 08:13:20;;;;;;;44.22;20.33;;;4.70;98.30;;;;;;4992162;28;20041;-77
2023/01/29 08:15:45;;;;;;;43.00;19.45;;;4.80;98.30;;;;;;4991164;28;20349;-77
2023/01/29 08:18:12;;;;;;;45.70;20.20;;;4.80;98.30;;;;;;4991340;28;20057;-77
2023/01/29 08:20:38;;;;;;;49.42;19.48;;;4.80;98.20;;;;;;4991097;28;20037;-77
2023/01/29 08:23:07;;;;;;;46.78;20.83;;;4.90;98.30;;;;;;4991944;28;20623;-77
2023/01/29 08:25:33;;;;;;;40.70;19.42;;;4.80;98.30;;;;;;4990717;28;20042;-77
2023/01/29 08:27:59;;;;;;;48.67;20.63;;;4.70;98.30;;;;;;4990230;28;20050;-77
2023/01/29 08:30:30;;;;;;;45.70;19.52;;;4.70;98.50;;;;;;4991959;28;20057;-78
2023/01/29 08:32:56;;;;;;;48.90;20.25;;;4.50;98.70;;;;;;4991105;28;20086;-79
2023/01/29 08:35:22;;;;;;;48.63;20.52;;;4.80;98.80;;;;;;4990143;28;20038;-77
2023/01/29 08:37:55;;;;;;;43.78;19.75;;;4.70;98.60;;;;;;4990081;28;20037;-78
2023/01/29 08:40:21;;;;;;;44.00;19.77;;;4.70;98.60;;;;;;4990000;28;20065;-78
2023/01/29 08:42:47;;;;;;;47.70;19.45;;;4.70;98.60;;;;;;4990965;28;20061;-77
2023/01/29 08:45:12;;;;;;;46.35;19.48;;;4.70;98.50;;;;;;4991206;28;20441;-77
2023/01/29 08:47:45;;;;;;;39.17;19.30;;;4.70;98.50;;;;;;4991282;28;20027;-77
2023/01/29 08:50:10;;;;;;;49.40;21.88;;;4.80;98.60;;;;;;4990903;28;20041;-77
2023/01/29 08:52:36;;;;;;;45.92;20.00;;;4.70;98.60;;;;;;4990850;28;20109;-77
2023/01/29 08:55:02;;;;;;;48.58;20.25;;;4.70;98.50;;;;;;4990956;28;20444;-77
2023/01/29 08:57:27;;;;;;;43.08;18.77;;;4.80;98.60;;;;;;4991273;28;20082;-77
2023/01/29 08:59:53;;;;;;;40.38;18.77;;;4.90;98.50;;;;;;4990821;28;20372;-77
2023/01/29 09:02:19;;;;;;;40.85;18.65;;;5.10;98.40;;;;;;4989619;28;20377;-78
2023/01/29 09:04:45;;;;;;;41.63;18.48;;;5.00;98.40;;;;;;4990643;28;20384;-77
2023/01/29 09:07:10;;;;;;;47.83;20.90;;;5.00;98.30;;;;;;4990628;28;20088;-77
2023/01/29 09:09:37;;;;;;;43.47;18.95;;;5.00;98.30;;;;;;4989835;28;20124;-75
2023/01/29 09:12:02;;;;;;;42.75;19.45;;;5.10;98.20;;;;;;4990706;28;20046;-78
2023/01/29 09:14:28;;;;;;;48.97;20.35;;;4.90;98.10;;;;;;4989490;28;20023;-78
2023/01/29 09:16:54;;;;;;;43.85;18.55;;;5.00;98.20;;;;;;4989586;28;20076;-75
2023/01/29 09:19:19;;;;;;;45.17;19.08;;;5.00;98.10;;;;;;4990450;28;20031;-77
2023/01/29 09:21:48;;;;;;;51.00;20.52;;;5.00;98.10;;;;;;4990326;28;20022;-76
2023/01/29 09:24:14;;;;;;;46.90;20.50;;;4.90;98.20;;;;;;4990802;28;20033;-77
2023/01/29 09:26:40;;;;;;;40.70;18.80;;;4.90;98.10;;;;;;4951510;28;1129712;-77
2023/01/29 09:29:08;;;;;;;43.40;19.20;;;4.90;98.20;;;;;;4991117;28;20140;-78
2023/01/29 09:31:34;;;;;;;47.17;20.30;;;5.00;98.20;;;;;;4990947;28;20117;-78
2023/01/29 09:34:02;;;;;;;49.30;20.40;;;4.90;98.10;;;;;;4990169;28;20464;-76
2023/01/29 09:36:27;;;;;;;;;;;4.90;98.20;;;;;;4992150;28;20338;-76
2023/01/29 09:38:53;;;;;;;38.38;17.42;;;4.90;98.30;;;;;;4991235;28;19917;-77
2023/01/29 09:41:37;;;;;;;45.72;19.23;;;5.10;98.20;;;;;;4991231;28;20435;-77
2023/01/29 09:44:14;;;;;;;39.03;16.65;;;5.10;98.00;;;;;;4991139;28;20035;-77
2023/01/29 09:46:45;;;;;;;43.20;18.98;;;5.20;97.90;;;;;;4991535;28;20030;-77
2023/01/29 09:49:36;;;;;;;40.83;18.08;;;5.20;97.80;;;;;;4991064;28;20037;-77
2023/01/29 09:52:08;;;;;;;38.80;17.33;;;5.20;97.90;;;;;;4991065;28;20224;-77
2023/01/29 09:54:55;;;;;;;40.45;17.55;;;5.10;97.80;;;;;;4991303;28;20076;-77
2023/01/29 09:57:32;;;;;;;41.70;17.25;;;5.30;98.00;;;;;;4991244;28;20046;-77
2023/01/29 09:59:58;;;;;;;39.97;18.63;;;5.20;97.70;;;;;;4990766;28;20038;-77
2023/01/29 10:02:42;;;;;;;42.42;18.10;;;5.20;97.80;;;;;;4991151;28;20042;-77
2023/01/29 10:05:29;;;;;;;40.33;17.52;;;5.20;97.90;;;;;;4989758;28;20400;-76
2023/01/29 10:08:25;;;;;;;38.67;17.70;;;5.20;97.70;;;;;;4990802;28;20097;-77
2023/01/29 10:11:06;;;;;;;40.07;17.47;;;5.40;97.60;;;;;;4990677;28;20038;-78
2023/01/29 10:13:54;;;;;;;36.22;17.20;;;5.40;97.50;;;;;;4991032;28;20188;-78
2023/01/29 10:17:04;;;;;;;41.40;17.40;;;5.40;97.50;;;;;;4990690;28;20039;-77
2023/01/29 10:19:58;;;;;;;44.10;18.23;;;5.30;97.80;;;;;;4968983;28;20035;-77
2023/01/29 10:22:41;;;;;;;39.83;17.42;;;5.50;97.70;;;;;;4986312;28;20067;-77
2023/01/29 10:25:12;;;;;;;41.08;16.65;;;5.50;97.40;;;;;;4973783;28;20360;-77
2023/01/29 10:27:40;;;;;;;40.58;17.38;;;5.50;97.70;;;;;;4979383;28;20457;-76
2023/01/29 10:30:10;;;;;;;;;;;5.50;97.50;;;;;;5001846;28;20034;-77
2023/01/29 10:32:37;;;;;;;42.63;17.55;;;5.50;97.50;;;;;;5002546;28;19910;-76
2023/01/29 10:35:22;;;;;;;34.90;16.13;;;5.60;97.40;;;;;;4999588;28;20608;-75
2023/01/29 10:37:52;;;;;;;44.13;17.35;;;5.60;97.30;;;;;;5000780;28;20053;-78
2023/01/29 10:40:43;;;;;;;36.28;15.98;;;5.50;97.50;;;;;;4999087;28;20030;-77
2023/01/29 10:43:32;;;;;;;39.95;15.90;;;5.50;97.50;;;;;;4999847;28;20461;-77
2023/01/29 10:46:17;;;;;;;39.28;16.35;;;5.50;97.40;;;;;;4999666;28;20042;-77
2023/01/29 10:48:58;;;;;;;35.28;16.00;;;5.40;97.50;;;;;;4998502;28;20030;-77
2023/01/29 10:51:52;;;;;;;36.50;16.05;;;5.60;97.50;;;;;;4997374;28;20038;-78
2023/01/29 10:54:56;;;;;;;34.80;15.48;;;5.70;97.40;;;;;;5003116;28;20473;-77
2023/01/29 10:57:33;;;;;;;36.95;15.55;;;5.70;97.20;;;;;;4998689;28;20066;-77
2023/01/29 11:00:12;;;;;;;38.03;16.20;;;5.70;97.20;;;;;;4993556;28;20030;-77
2023/01/29 11:02:48;;;;;;;30.60;14.60;;;5.70;97.30;;;;;;4993378;28;20065;-78
2023/01/29 11:05:30;;;;;;;35.47;16.02;;;5.70;97.10;;;;;;4993286;28;20112;-77
2023/01/29 11:08:41;;;;;;;36.58;16.33;;;5.60;97.00;;;;;;4992726;28;20205;-77
2023/01/29 11:11:16;;;;;;;33.78;15.18;;;5.60;96.90;;;;;;4984136;28;20034;-77
2023/01/29 11:14:01;;;;;;;37.15;16.40;;;5.50;97.10;;;;;;4993486;28;20297;-76
2023/01/29 11:16:28;;;;;;;33.60;15.60;;;5.40;97.10;;;;;;4993630;28;20038;-77
2023/01/29 11:18:59;;;;;;;34.97;15.00;;;5.40;97.20;;;;;;4992426;28;20037;-78
2023/01/29 11:21:26;;;;;;;32.67;14.68;;;5.60;97.10;;;;;;4993665;28;20058;-78
2023/01/29 11:24:16;;;;;;;35.90;14.88;;;5.50;97.00;;;;;;4993486;28;20061;-78
2023/01/29 11:26:44;;;;;;;32.28;15.00;;;5.60;96.90;;;;;;4993237;28;20027;-78
2023/01/29 11:29:38;;;;;;;35.53;14.77;;;5.60;96.90;;;;;;4992171;28;20034;-76
2023/01/29 11:32:10;;;;;;;32.97;15.20;;;5.50;96.80;;;;;;4984996;28;20127;-77
2023/01/29 11:35:18;;;;;;;35.47;15.35;;;5.60;96.90;;;;;;4993057;28;20030;-77
2023/01/29 11:37:44;;;;;;;;;;;5.50;96.80;;;;;;4991411;28;20185;-78
2023/01/29 11:40:19;;;;;;;34.08;14.00;;;5.40;96.70;;;;;;4992936;28;19920;-77
2023/01/29 11:42:46;;;;;;;32.58;14.57;;;5.60;96.70;;;;;;4993385;28;20022;-78
2023/01/29 11:45:28;;;;;;;31.98;15.48;;;5.70;96.60;;;;;;4993086;28;20026;-78
2023/01/29 11:47:55;;;;;;;32.65;15.23;;;5.60;96.50;;;;;;4993058;28;20094;-77
2023/01/29 11:50:32;;;;;;;34.40;15.90;;;5.60;96.50;;;;;;4992736;28;20035;-78
2023/01/29 11:52:59;;;;;;;36.20;14.77;;;5.70;96.40;;;;;;4992848;28;20038;-77
2023/01/29 11:55:29;;;;;;;36.60;15.82;;;5.60;96.20;;;;;;4992841;28;20026;-78
2023/01/29 11:58:26;;;;;;;32.58;14.25;;;5.50;96.30;;;;;;4991693;28;20026;-77
2023/01/29 12:00:54;;;;;;;;;;;5.70;96.30;;;;;;4988306;28;20038;-77
2023/01/29 12:03:47;;;;;;;31.80;14.43;;;5.60;96.30;;;;;;4991803;28;20248;-77
2023/01/29 12:06:38;;;;;;;31.13;14.15;;;5.60;96.40;;;;;;4987412;28;20042;-76
2023/01/29 12:09:13;;;;;;;38.20;16.25;;;5.60;96.30;;;;;;4989884;28;20432;-77
2023/01/29 12:11:39;;;;;;;37.83;15.43;;;5.80;96.40;;;;;;4992394;28;20034;-77
2023/01/29 12:14:32;;;;;;;35.45;16.00;;;5.70;96.30;;;;;;4992331;28;20518;-76
2023/01/29 12:17:06;;;;;;;35.53;15.82;;;5.70;96.20;;;;;;4992351;28;20058;-78
2023/01/29 12:19:48;;;;;;;35.45;16.40;;;5.80;96.30;;;;;;4990977;28;20396;-79
2023/01/29 12:22:44;;;;;;;39.00;16.65;;;5.80;96.40;;;;;;4990810;28;20046;-77
2023/01/29 12:25:20;;;;;;;37.35;15.90;;;5.90;96.10;;;;;;4991896;28;20045;-78
2023/01/29 12:27:55;;;;;;;42.03;17.20;;;5.70;95.90;;;;;;4990758;28;20416;-77
2023/01/29 12:30:35;;;;;;;38.88;17.23;;;5.70;95.90;;;;;;4992373;28;20053;-77
2023/01/29 12:33:25;;;;;;;40.22;18.08;;;5.80;96.00;;;;;;4991814;28;20045;-78
2023/01/29 12:36:13;;;;;;;40.10;17.83;;;5.80;95.90;;;;;;4991756;28;20068;-78
2023/01/29 12:38:42;;;;;;;35.88;17.02;;;5.70;96.00;;;;;;4991914;28;20031;-77
2023/01/29 12:41:27;;;;;;;39.20;17.23;;;5.80;96.10;;;;;;4991706;28;20034;-78
2023/01/29 12:43:58;;;;;;;40.03;17.15;;;5.80;95.90;;;;;;4991479;28;20042;-77
2023/01/29 12:46:26;;;;;;;39.03;17.13;;;5.80;96.00;;;;;;4991663;28;20031;-78
2023/01/29 12:48:54;;;;;;;42.20;17.17;;;5.80;96.00;;;;;;4991752;28;20102;-78
2023/01/29 12:51:25;;;;;;;;;;;5.80;96.20;;;;;;4992529;28;20023;-78
2023/01/29 12:54:06;;;;;;;37.30;16.42;;;5.80;96.00;;;;;;4990370;28;19924;-78
2023/01/29 12:56:37;;;;;;;38.13;17.08;;;5.60;96.20;;;;;;4990459;28;20125;-77
2023/01/29 12:59:25;;;;;;;37.65;16.38;;;5.80;96.20;;;;;;4990318;28;20489;-79
2023/01/29 13:01:55;;;;;;;34.08;16.05;;;5.80;96.10;;;;;;4988234;28;20089;-78
2023/01/29 13:04:42;;;;;;;38.70;17.70;;;5.80;96.10;;;;;;4990239;28;20057;-78
2023/01/29 13:07:18;;;;;;;38.43;16.53;;;5.80;96.20;;;;;;4991445;28;20031;-77
2023/01/29 13:09:51;;;;;;;41.58;16.80;;;5.80;96.10;;;;;;4991388;28;20027;-76
2023/01/29 13:12:19;;;;;;;38.10;17.70;;;5.80;96.20;;;;;;4990611;28;20464;-78
2023/01/29 13:14:52;;;;;;;39.20;16.48;;;5.70;96.20;;;;;;4990097;28;20105;-78
2023/01/29 13:17:39;;;;;;;45.88;18.15;;;5.60;96.20;;;;;;4991380;28;20157;-78
2023/01/29 13:20:27;;;;;;;36.35;15.48;;;5.50;96.30;;;;;;4991148;28;20038;-77
2023/01/29 13:22:57;;;;;;;40.13;17.02;;;5.60;96.30;;;;;;4991113;28;20038;-78
2023/01/29 13:25:22;;;;;;;41.30;18.65;;;5.70;96.40;;;;;;4991182;28;20065;-77
2023/01/29 13:27:49;;;;;;;39.70;15.52;;;5.70;96.20;;;;;;4991281;28;20089;-78
2023/01/29 13:30:29;;;;;;;33.85;15.70;;;5.70;96.30;;;;;;4991402;28;20089;-78
2023/01/29 13:33:07;;;;;;;37.42;17.13;;;5.70;96.30;;;;;;4991019;28;20325;-78
2023/01/29 13:35:39;;;;;;;39.53;16.20;;;5.50;96.20;;;;;;4990778;28;20525;-78
2023/01/29 13:38:20;;;;;;;37.13;16.08;;;5.80;96.30;;;;;;4989911;28;20081;-77
2023/01/29 13:40:49;;;;;;;42.65;17.65;;;5.80;96.50;;;;;;4990938;28;20041;-78